KAVL/AVL METAR and TAF weather

Enter ICAO airport designator
Station Type Date Time Source
KAVL METAR 2019/08/17 10:54 UTC NOAA

KAVL 171054Z 33003KT 10SM CLR 18/16 A3009 RMK AO2 SLP161 T01780156


Station Type Date Time Source
KAVL Decoded METAR 2019/08/17 10:54 UTC NOAA

Station name not available
Aug 17, 2019 - 06:54 AM EDT / 2019.08.17 1054 UTC
Wind: from the NNW (330 degrees) at 3 MPH (3 KT):0
Visibility: 10 mile(s):0
Sky conditions: clear
Temperature: 64.0 F (17.8 C)
Dew Point: 60.1 F (15.6 C)
Relative Humidity: 86%
Pressure (altimeter): 30.09 in. Hg (1018 hPa)
ob: KAVL 171054Z 33003KT 10SM CLR 18/16 A3009 RMK AO2 SLP161 T01780156
cycle: 11

Station Type Date Time Source
KAVL TAF 2019/08/17 09:03 UTC NOAA

TAF
AMD KAVL 170901Z 1709/1806 00000KT P6SM SKC
TEMPO 1710/1712 5SM BR SCT010
FM171400 34004KT P6SM FEW050
FM171600 34005KT P6SM SCT060 PROB30 1719/1723 TSRA BKN040CB
FM172300 VRB04KT P6SM FEW060 SCT150

Example: see airport list